createdAt,value
2023-05-02T00:02:04.084Z,7.00
2023-05-02T00:04:33.139Z,6.75
2023-05-02T00:06:59.868Z,6.07
2023-05-02T00:09:26.551Z,6.32
2023-05-02T00:11:53.107Z,7.00
2023-05-02T00:14:21.050Z,6.45
2023-05-02T00:16:48.079Z,7.13
2023-05-02T00:19:14.792Z,7.30
2023-05-02T00:21:49.966Z,7.32
2023-05-02T00:24:20.063Z,6.65
2023-05-02T00:26:46.703Z,6.90
2023-05-02T00:29:13.264Z,6.72
2023-05-02T00:31:41.239Z,6.78
2023-05-02T00:34:07.946Z,7.15
2023-05-02T00:36:34.530Z,7.50
2023-05-02T00:39:01.278Z,6.95
2023-05-02T00:41:27.848Z,7.38
2023-05-02T00:43:54.431Z,7.10
2023-05-02T00:46:21.114Z,6.65
2023-05-02T00:48:48.000Z,7.00
2023-05-02T00:51:14.582Z,7.35
2023-05-02T00:53:41.726Z,7.25
2023-05-02T00:56:09.469Z,7.20
2023-05-02T00:58:38.735Z,6.78
2023-05-02T01:01:29.415Z,6.50
2023-05-02T01:04:50.746Z,6.78
2023-05-02T01:08:03.460Z,7.03
2023-05-02T01:10:50.148Z,6.60
2023-05-02T01:13:25.697Z,7.88
2023-05-02T01:15:55.853Z,8.15
2023-05-02T01:18:26.601Z,7.47
2023-05-02T01:21:07.733Z,7.47
2023-05-02T01:24:01.361Z,7.68
2023-05-02T01:27:17.245Z,7.82
2023-05-02T01:29:45.982Z,8.20
2023-05-02T01:32:15.013Z,7.68
2023-05-02T01:34:44.590Z,9.05
2023-05-02T01:37:13.646Z,8.02
2023-05-02T01:39:44.242Z,8.82
2023-05-02T01:42:13.161Z,8.65
2023-05-02T01:44:42.369Z,9.27
2023-05-02T01:47:10.082Z,9.30
2023-05-02T01:49:37.839Z,8.77
2023-05-02T01:52:11.364Z,9.80
2023-05-02T01:54:40.104Z,10.40
2023-05-02T01:57:09.475Z,10.15
2023-05-02T01:59:38.979Z,10.02
2023-05-02T02:02:08.424Z,10.80
2023-05-02T02:04:37.894Z,10.77
2023-05-02T02:07:09.490Z,10.88
2023-05-02T02:09:36.387Z,11.40
2023-05-02T02:12:17.585Z,11.50
2023-05-02T02:14:51.215Z,11.93
2023-05-02T02:17:37.317Z,12.57
2023-05-02T02:20:09.617Z,12.88
2023-05-02T02:22:39.491Z,11.80
2023-05-02T02:25:11.126Z,12.82
2023-05-02T02:27:39.187Z,13.25
2023-05-02T02:30:07.232Z,13.23
2023-05-02T02:32:33.900Z,13.77
2023-05-02T02:35:01.452Z,14.13
2023-05-02T02:37:39.764Z,13.85
2023-05-02T02:40:49.529Z,13.35
2023-05-02T02:43:28.469Z,13.65
2023-05-02T02:46:26.185Z,14.07
2023-05-02T02:49:18.692Z,14.70
2023-05-02T02:51:54.386Z,14.73
2023-05-02T02:54:58.675Z,14.00
2023-05-02T02:57:59.035Z,14.25
2023-05-02T03:00:28.295Z,14.75
2023-05-02T03:02:56.650Z,15.15
2023-05-02T03:05:29.074Z,14.95
2023-05-02T03:07:55.890Z,14.68
2023-05-02T03:10:23.191Z,14.50
2023-05-02T03:12:50.323Z,14.40
2023-05-02T03:15:59.029Z,15.10
2023-05-02T03:18:25.821Z,15.52
2023-05-02T03:20:52.631Z,15.02
2023-05-02T03:23:19.250Z,14.93
2023-05-02T03:25:45.833Z,15.00
2023-05-02T03:28:12.383Z,14.52
2023-05-02T03:30:40.662Z,13.60
2023-05-02T03:33:08.714Z,14.38
2023-05-02T03:35:35.399Z,14.05
2023-05-02T03:38:02.007Z,14.02
2023-05-02T03:40:28.643Z,15.80
2023-05-02T03:42:55.270Z,15.48
2023-05-02T03:45:21.841Z,18.98
2023-05-02T03:47:48.510Z,19.08
2023-05-02T03:50:15.276Z,21.05
2023-05-02T03:52:41.932Z,21.00
2023-05-02T03:55:08.744Z,21.95
2023-05-02T03:57:35.355Z,23.67
2023-05-02T04:00:02.223Z,22.65
2023-05-02T04:02:30.340Z,22.58
2023-05-02T04:04:57.086Z,23.75
2023-05-02T04:07:25.678Z,24.63
2023-05-02T04:09:52.235Z,22.77
2023-05-02T04:12:18.846Z,24.48
2023-05-02T04:14:45.516Z,24.25
2023-05-02T04:17:12.350Z,25.33
2023-05-02T04:19:38.959Z,24.98
2023-05-02T04:22:05.634Z,24.33
2023-05-02T04:24:32.210Z,25.35
2023-05-02T04:26:58.849Z,25.17
2023-05-02T04:29:25.467Z,24.60
2023-05-02T04:31:52.096Z,25.20
2023-05-02T04:34:18.665Z,24.85
2023-05-02T04:36:46.855Z,26.80
2023-05-02T04:39:13.535Z,28.85
2023-05-02T04:41:40.596Z,28.75
2023-05-02T04:44:07.205Z,26.90
2023-05-02T04:46:33.877Z,27.85
2023-05-02T04:49:00.700Z,29.23
2023-05-02T04:51:29.006Z,28.45
2023-05-02T04:53:55.588Z,29.52
2023-05-02T04:56:22.158Z,28.77
2023-05-02T04:58:53.787Z,30.90
2023-05-02T05:01:20.522Z,28.88
2023-05-02T05:03:47.247Z,30.35
2023-05-02T05:06:13.958Z,29.13
2023-05-02T05:08:40.671Z,29.85
2023-05-02T05:11:07.304Z,27.85
2023-05-02T05:13:34.125Z,27.70
2023-05-02T05:16:00.703Z,27.27
2023-05-02T05:18:27.788Z,26.83
2023-05-02T05:20:54.670Z,26.80
2023-05-02T05:23:21.381Z,28.15
2023-05-02T05:25:48.125Z,26.83
2023-05-02T05:28:14.755Z,25.83
2023-05-02T05:30:41.510Z,26.58
2023-05-02T05:33:08.106Z,25.40
2023-05-02T05:35:34.930Z,24.55
2023-05-02T05:38:01.582Z,25.40
2023-05-02T05:40:28.167Z,24.98
2023-05-02T05:42:54.774Z,24.50
2023-05-02T05:45:21.437Z,24.48
2023-05-02T05:47:48.039Z,22.88
2023-05-02T05:50:14.743Z,21.08
2023-05-02T05:52:41.343Z,22.13
2023-05-02T05:55:08.591Z,20.55
2023-05-02T05:57:35.271Z,20.92
2023-05-02T06:00:02.301Z,19.77
2023-05-02T06:02:29.402Z,18.58
2023-05-02T06:04:56.054Z,17.35
2023-05-02T06:07:23.440Z,16.52
2023-05-02T06:09:50.151Z,13.45
2023-05-02T06:12:16.903Z,13.88
2023-05-02T06:14:43.631Z,14.23
2023-05-02T06:17:10.253Z,14.45
2023-05-02T06:19:36.832Z,13.18
2023-05-02T06:22:03.434Z,13.82
2023-05-02T06:24:30.009Z,13.05
2023-05-02T06:26:56.587Z,12.98
2023-05-02T06:29:23.244Z,13.63
2023-05-02T06:31:51.214Z,15.70
2023-05-02T06:34:17.939Z,14.88
2023-05-02T06:36:44.550Z,13.75
2023-05-02T06:39:11.541Z,14.40
2023-05-02T06:41:49.221Z,13.38
2023-05-02T06:44:16.229Z,13.65
2023-05-02T06:46:43.311Z,13.75
2023-05-02T06:49:10.230Z,13.50
2023-05-02T06:51:36.788Z,14.90
2023-05-02T06:54:03.597Z,15.18
2023-05-02T06:56:31.067Z,14.95
2023-05-02T06:58:57.669Z,15.50
2023-05-02T07:01:24.415Z,15.27
2023-05-02T07:03:51.943Z,15.27
2023-05-02T07:06:18.926Z,15.38
2023-05-02T07:08:45.816Z,15.25
2023-05-02T07:11:12.378Z,14.07
2023-05-02T07:13:38.980Z,15.40
2023-05-02T07:16:07.330Z,15.45
2023-05-02T07:18:33.927Z,16.83
2023-05-02T07:21:01.339Z,18.25
2023-05-02T07:23:28.260Z,16.42
2023-05-02T07:25:54.920Z,16.00
2023-05-02T07:28:21.625Z,18.80
2023-05-02T07:30:48.223Z,16.45
2023-05-02T07:33:15.637Z,16.08
2023-05-02T07:35:42.915Z,16.00
2023-05-02T07:38:09.582Z,16.02
2023-05-02T07:40:36.264Z,15.68
2023-05-02T07:43:04.529Z,15.10
2023-05-02T07:45:31.130Z,16.00
2023-05-02T07:47:57.824Z,15.63
2023-05-02T07:50:24.727Z,15.80
2023-05-02T07:52:51.462Z,16.85
2023-05-02T07:55:18.226Z,16.75
2023-05-02T07:57:44.876Z,17.10
2023-05-02T08:00:12.211Z,18.08
2023-05-02T08:02:38.958Z,17.40
2023-05-02T08:05:06.692Z,17.52
2023-05-02T08:07:35.221Z,15.82
2023-05-02T08:10:02.242Z,13.60
2023-05-02T08:12:29.210Z,15.50
2023-05-02T08:14:55.990Z,14.20
2023-05-02T08:17:23.037Z,14.48
2023-05-02T08:19:49.644Z,13.90
2023-05-02T08:22:16.250Z,14.15
2023-05-02T08:24:42.817Z,14.20
2023-05-02T08:27:09.404Z,13.27
2023-05-02T08:29:36.006Z,13.73
2023-05-02T08:32:02.802Z,14.98
2023-05-02T08:34:29.503Z,14.27
2023-05-02T08:36:58.663Z,16.50
2023-05-02T08:39:25.332Z,16.42
2023-05-02T08:41:52.015Z,13.77
2023-05-02T08:44:18.643Z,15.00
2023-05-02T08:46:46.016Z,13.18
2023-05-02T08:49:15.754Z,13.63
2023-05-02T08:51:45.178Z,13.48
2023-05-02T08:54:16.891Z,15.82
2023-05-02T08:56:45.336Z,11.82
2023-05-02T08:59:11.894Z,11.77
2023-05-02T09:01:41.609Z,11.10
2023-05-02T09:04:08.509Z,11.23
2023-05-02T09:06:36.528Z,10.40
2023-05-02T09:09:03.415Z,11.52
2023-05-02T09:11:30.130Z,10.40
2023-05-02T09:13:58.857Z,10.05
2023-05-02T09:16:27.010Z,10.65
2023-05-02T09:18:56.284Z,9.07
2023-05-02T09:21:45.282Z,10.05
2023-05-02T09:24:22.631Z,9.43
2023-05-02T09:27:05.634Z,10.65
2023-05-02T09:29:38.527Z,8.57
2023-05-02T09:32:06.487Z,8.30
2023-05-02T09:34:34.338Z,7.40
2023-05-02T09:37:01.410Z,7.35
2023-05-02T09:39:29.153Z,7.68
2023-05-02T09:41:57.575Z,6.18
2023-05-02T09:44:27.304Z,5.20
2023-05-02T09:46:57.200Z,4.10
2023-05-02T09:49:39.897Z,3.47
2023-05-02T09:52:18.345Z,2.92
2023-05-02T09:54:46.612Z,3.22
2023-05-02T09:57:13.821Z,3.55
2023-05-02T09:59:41.073Z,3.70
2023-05-02T10:02:10.954Z,3.10
2023-05-02T10:04:39.889Z,3.15
2023-05-02T10:07:10.216Z,3.00
2023-05-02T10:09:43.664Z,2.70
2023-05-02T10:12:14.901Z,3.00
2023-05-02T10:14:53.846Z,3.53
2023-05-02T10:17:31.486Z,3.28
2023-05-02T10:20:05.226Z,2.70
2023-05-02T10:22:34.521Z,2.47
2023-05-02T10:25:03.748Z,5.22
2023-05-02T10:27:31.767Z,2.55
2023-05-02T10:30:00.208Z,2.40
2023-05-02T10:32:30.371Z,5.65
2023-05-02T10:34:57.818Z,5.35
2023-05-02T10:37:27.547Z,2.05
2023-05-02T10:39:54.522Z,1.60
2023-05-02T10:42:21.650Z,1.70
2023-05-02T10:44:50.335Z,1.70
2023-05-02T10:47:27.290Z,1.60
2023-05-02T10:50:02.945Z,2.13
2023-05-02T10:52:33.927Z,2.00
2023-05-02T10:55:21.128Z,1.83
2023-05-02T10:58:06.432Z,2.38
2023-05-02T11:00:34.427Z,2.47
2023-05-02T11:03:02.423Z,2.95
2023-05-02T11:05:29.554Z,2.97
2023-05-02T11:08:14.899Z,2.80
2023-05-02T11:10:41.794Z,3.00
2023-05-02T11:13:08.558Z,3.00
2023-05-02T11:15:41.207Z,2.63
2023-05-02T11:18:13.291Z,2.30
2023-05-02T11:20:44.983Z,1.83
2023-05-02T11:23:15.150Z,2.50
2023-05-02T11:25:47.318Z,2.33
2023-05-02T11:28:40.486Z,1.73
2023-05-02T11:31:10.013Z,1.55
2023-05-02T11:33:36.767Z,1.60
2023-05-02T11:36:03.800Z,1.33
2023-05-02T11:38:38.679Z,1.50
2023-05-02T11:41:05.664Z,1.65
2023-05-02T11:43:32.899Z,1.02
2023-05-02T11:46:02.482Z,1.35
2023-05-02T11:48:31.014Z,1.20
2023-05-02T11:51:03.527Z,1.40
2023-05-02T11:53:31.434Z,1.50
2023-05-02T11:56:00.266Z,1.30
2023-05-02T11:58:32.022Z,1.30
2023-05-02T12:01:12.902Z,1.33
2023-05-02T12:03:40.997Z,1.42
2023-05-02T12:06:16.439Z,1.40
2023-05-02T12:08:44.628Z,1.48
2023-05-02T12:11:16.315Z,1.63
2023-05-02T12:13:48.337Z,2.33
2023-05-02T12:16:16.794Z,2.30
2023-05-02T12:18:43.970Z,2.50
2023-05-02T12:21:11.010Z,2.70
2023-05-02T12:23:39.642Z,2.95
2023-05-02T12:26:25.514Z,3.00
2023-05-02T12:28:54.705Z,3.90
2023-05-02T12:31:22.575Z,3.70
2023-05-02T12:33:51.653Z,3.33
2023-05-02T12:36:21.513Z,3.05
2023-05-02T12:38:54.542Z,3.42
2023-05-02T12:41:31.809Z,3.40
2023-05-02T12:44:00.546Z,3.63
2023-05-02T12:46:28.283Z,2.78
2023-05-02T12:49:09.507Z,2.35
2023-05-02T12:51:37.712Z,2.47
2023-05-02T12:54:05.002Z,1.77
2023-05-02T12:56:39.890Z,1.88
2023-05-02T12:59:07.751Z,1.92
2023-05-02T13:01:34.640Z,1.70
2023-05-02T13:04:01.468Z,1.70
2023-05-02T13:06:28.260Z,1.60
2023-05-02T13:08:54.882Z,1.70
2023-05-02T13:11:21.806Z,1.90
2023-05-02T13:13:48.410Z,1.55
2023-05-02T13:16:15.041Z,1.85
2023-05-02T13:18:41.742Z,1.90
2023-05-02T13:21:08.709Z,2.10
2023-05-02T13:23:35.306Z,2.17
2023-05-02T13:26:01.911Z,1.75
2023-05-02T13:28:33.023Z,2.47
2023-05-02T13:30:59.727Z,2.45
2023-05-02T13:33:26.320Z,2.60
2023-05-02T13:35:52.926Z,2.70
2023-05-02T13:38:20.544Z,3.00
2023-05-02T13:40:47.333Z,2.47
2023-05-02T13:43:14.455Z,2.70
2023-05-02T13:45:41.204Z,2.70
2023-05-02T13:48:07.820Z,2.67
2023-05-02T13:50:37.203Z,2.80
2023-05-02T13:53:03.776Z,2.80
2023-05-02T13:55:30.335Z,4.00
2023-05-02T13:57:56.928Z,3.83
2023-05-02T14:00:23.538Z,4.05
2023-05-02T14:02:50.262Z,3.88
2023-05-02T14:05:16.936Z,3.97
2023-05-02T14:07:43.660Z,3.80
2023-05-02T14:10:10.520Z,4.00
2023-05-02T14:12:37.103Z,3.50
2023-05-02T14:15:04.305Z,4.03
2023-05-02T14:17:31.998Z,3.92
2023-05-02T14:19:58.670Z,3.78
2023-05-02T14:22:25.510Z,3.45
2023-05-02T14:24:52.096Z,3.60
2023-05-02T14:27:18.769Z,4.40
2023-05-02T14:29:46.330Z,4.70
2023-05-02T14:32:13.744Z,4.15
2023-05-02T14:34:41.569Z,4.40
2023-05-02T14:37:09.003Z,4.07
2023-05-02T14:39:36.843Z,4.50
2023-05-02T14:42:04.228Z,3.85
2023-05-02T14:44:31.087Z,4.47
2023-05-02T14:46:57.829Z,4.10
2023-05-02T14:49:25.274Z,3.85
2023-05-02T14:51:52.588Z,3.95
2023-05-02T14:54:20.123Z,3.90
2023-05-02T14:56:48.015Z,4.40
2023-05-02T14:59:14.634Z,4.00
2023-05-02T15:01:41.251Z,4.10
2023-05-02T15:04:08.605Z,4.00
2023-05-02T15:06:36.163Z,3.40
2023-05-02T15:09:04.646Z,3.83
2023-05-02T15:11:31.482Z,4.78
2023-05-02T15:13:59.407Z,3.70
2023-05-02T15:16:29.375Z,4.13
2023-05-02T15:18:56.104Z,4.10
2023-05-02T15:21:22.885Z,3.03
2023-05-02T15:23:49.528Z,3.67
2023-05-02T15:26:16.184Z,4.05
2023-05-02T15:28:42.934Z,4.20
2023-05-02T15:31:09.641Z,3.63
2023-05-02T15:33:37.739Z,3.88
2023-05-02T15:36:04.670Z,3.42
2023-05-02T15:38:31.282Z,3.58
2023-05-02T15:41:00.093Z,3.92
2023-05-02T15:43:27.404Z,3.78
2023-05-02T15:45:57.170Z,4.07
2023-05-02T15:48:27.515Z,4.07
2023-05-02T15:50:54.255Z,2.72
2023-05-02T15:53:23.835Z,3.13
2023-05-02T15:55:52.035Z,2.60
2023-05-02T15:58:19.283Z,3.08
2023-05-02T16:00:47.409Z,3.10
2023-05-02T16:03:15.383Z,3.00
2023-05-02T16:05:42.202Z,3.47
2023-05-02T16:08:08.864Z,3.22
2023-05-02T16:10:36.428Z,3.67
2023-05-02T16:13:03.237Z,3.80
2023-05-02T16:15:30.282Z,3.75
2023-05-02T16:17:57.162Z,3.15
2023-05-02T16:20:23.912Z,3.17
2023-05-02T16:22:51.225Z,3.10
2023-05-02T16:25:18.601Z,2.83
2023-05-02T16:27:45.378Z,2.80
2023-05-02T16:30:12.708Z,2.70
2023-05-02T16:32:39.466Z,2.97
2023-05-02T16:35:08.184Z,2.78
2023-05-02T16:37:35.655Z,2.70
2023-05-02T16:40:05.382Z,1.88
2023-05-02T16:42:32.740Z,2.22
2023-05-02T16:44:59.417Z,2.22
2023-05-02T16:47:28.173Z,2.60
2023-05-02T16:49:56.126Z,2.53
2023-05-02T16:52:23.195Z,2.47
2023-05-02T16:54:50.295Z,2.20
2023-05-02T16:57:21.124Z,1.83
2023-05-02T16:59:52.259Z,2.25
2023-05-02T17:02:20.809Z,2.25
2023-05-02T17:04:49.184Z,2.40
2023-05-02T17:07:16.729Z,2.33
2023-05-02T17:09:44.479Z,1.80
2023-05-02T17:12:12.331Z,2.22
2023-05-02T17:14:42.155Z,2.00
2023-05-02T17:17:09.842Z,1.80
2023-05-02T17:19:37.362Z,2.13
2023-05-02T17:22:05.289Z,1.88
2023-05-02T17:24:33.082Z,2.05
2023-05-02T17:26:59.990Z,1.92
2023-05-02T17:29:26.648Z,1.70
2023-05-02T17:31:53.245Z,1.80
2023-05-02T17:34:25.480Z,1.77
2023-05-02T17:36:52.106Z,1.83
2023-05-02T17:39:18.749Z,2.00
2023-05-02T17:41:45.327Z,2.00
2023-05-02T17:44:11.907Z,2.00
2023-05-02T17:46:38.538Z,1.77
2023-05-02T17:49:05.177Z,2.03
2023-05-02T17:51:33.671Z,1.70
2023-05-02T17:54:00.808Z,1.73
2023-05-02T17:56:28.352Z,1.95
2023-05-02T17:58:55.307Z,1.90
2023-05-02T18:01:22.064Z,2.20
2023-05-02T18:03:49.799Z,1.40
2023-05-02T18:06:18.003Z,2.03
2023-05-02T18:08:45.258Z,1.90
2023-05-02T18:11:17.660Z,2.22
2023-05-02T18:13:44.603Z,1.90
2023-05-02T18:16:12.134Z,2.00
2023-05-02T18:18:38.880Z,2.00
2023-05-02T18:21:06.031Z,2.00
2023-05-02T18:23:33.558Z,2.20
2023-05-02T18:26:00.475Z,1.83
2023-05-02T18:28:27.202Z,2.13
2023-05-02T18:30:53.789Z,2.30
2023-05-02T18:33:20.583Z,2.67
2023-05-02T18:35:50.534Z,2.80
2023-05-02T18:38:17.382Z,2.63
2023-05-02T18:40:44.165Z,2.70
2023-05-02T18:43:10.895Z,2.60
2023-05-02T18:45:37.468Z,2.65
2023-05-02T18:48:04.268Z,2.63
2023-05-02T18:50:31.144Z,2.90
2023-05-02T18:52:57.732Z,3.25
2023-05-02T18:55:25.187Z,2.90
2023-05-02T18:57:52.160Z,2.75
2023-05-02T19:00:20.074Z,2.40
2023-05-02T19:02:47.431Z,2.70
2023-05-02T19:05:14.854Z,2.58
2023-05-02T19:07:41.463Z,2.90
2023-05-02T19:10:08.650Z,2.50
2023-05-02T19:12:35.319Z,2.58
2023-05-02T19:15:03.036Z,2.45
2023-05-02T19:17:33.218Z,2.78
2023-05-02T19:20:02.048Z,2.97
2023-05-02T19:22:30.303Z,2.78
2023-05-02T19:24:57.438Z,2.47
2023-05-02T19:27:24.289Z,2.88
2023-05-02T19:29:57.980Z,2.80
2023-05-02T19:32:25.077Z,3.17
2023-05-02T19:34:54.341Z,2.60
2023-05-02T19:37:20.942Z,2.97
2023-05-02T19:39:47.525Z,2.78
2023-05-02T19:42:14.357Z,2.45
2023-05-02T19:44:41.123Z,4.47
2023-05-02T19:47:07.785Z,2.83
2023-05-02T19:49:34.541Z,2.80
2023-05-02T19:52:01.157Z,2.80
2023-05-02T19:54:27.749Z,2.15
2023-05-02T19:56:54.338Z,3.30
2023-05-02T19:59:20.975Z,2.70
2023-05-02T20:01:47.677Z,3.03
2023-05-02T20:04:14.355Z,2.70
2023-05-02T20:06:41.118Z,2.90
2023-05-02T20:09:08.172Z,2.50
2023-05-02T20:11:34.795Z,3.00
2023-05-02T20:14:01.458Z,2.60
2023-05-02T20:16:31.056Z,2.55
2023-05-02T20:18:57.965Z,2.63
2023-05-02T20:21:24.755Z,2.92
2023-05-02T20:23:53.957Z,2.83
2023-05-02T20:26:21.232Z,2.47
2023-05-02T20:28:47.865Z,2.80
2023-05-02T20:31:14.601Z,2.85
2023-05-02T20:33:45.412Z,2.78
2023-05-02T20:36:13.420Z,2.80
2023-05-02T20:38:42.210Z,2.63
2023-05-02T20:41:13.118Z,3.08
2023-05-02T20:43:41.402Z,2.58
2023-05-02T20:46:13.785Z,2.55
2023-05-02T20:48:52.082Z,2.90
2023-05-02T20:51:18.680Z,2.78
2023-05-02T20:53:45.338Z,3.03
2023-05-02T20:56:11.947Z,2.60
2023-05-02T20:58:38.522Z,2.72
2023-05-02T21:01:05.804Z,2.40
2023-05-02T21:03:36.356Z,2.92
2023-05-02T21:06:08.439Z,2.80
2023-05-02T21:08:35.106Z,2.33
2023-05-02T21:11:01.708Z,3.00
2023-05-02T21:13:28.388Z,2.90
2023-05-02T21:15:55.168Z,3.22
2023-05-02T21:18:21.756Z,2.60
2023-05-02T21:20:48.958Z,2.58
2023-05-02T21:23:15.594Z,2.53
2023-05-02T21:25:42.225Z,2.30
2023-05-02T21:28:08.829Z,2.60
2023-05-02T21:30:35.516Z,3.00
2023-05-02T21:33:05.063Z,2.97
2023-05-02T21:35:33.967Z,2.70
2023-05-02T21:38:01.468Z,2.97
2023-05-02T21:40:29.245Z,2.75
2023-05-02T21:42:55.885Z,2.83
2023-05-02T21:45:22.505Z,3.30
2023-05-02T21:47:49.128Z,2.80
2023-05-02T21:50:16.637Z,3.20
2023-05-02T21:52:46.625Z,2.80
2023-05-02T21:55:13.282Z,3.50
2023-05-02T21:57:40.829Z,3.08
2023-05-02T22:00:11.437Z,2.97
2023-05-02T22:02:38.132Z,2.92
2023-05-02T22:05:05.272Z,3.20
2023-05-02T22:07:31.921Z,3.25
2023-05-02T22:09:58.480Z,3.72
2023-05-02T22:12:26.708Z,3.58
2023-05-02T22:14:53.304Z,3.90
2023-05-02T22:17:21.511Z,3.33
2023-05-02T22:19:50.096Z,3.70
2023-05-02T22:22:16.788Z,4.03
2023-05-02T22:24:43.551Z,3.85
2023-05-02T22:27:10.277Z,3.13
2023-05-02T22:29:36.845Z,3.97
2023-05-02T22:32:03.602Z,3.92
2023-05-02T22:34:30.402Z,4.55
2023-05-02T22:36:56.995Z,3.60
2023-05-02T22:39:23.967Z,5.25
2023-05-02T22:41:50.584Z,4.13
2023-05-02T22:44:17.264Z,4.57
2023-05-02T22:46:43.933Z,4.93
2023-05-02T22:49:11.052Z,3.92
2023-05-02T22:51:41.666Z,3.65
2023-05-02T22:54:08.387Z,4.47
2023-05-02T22:56:35.204Z,4.30
2023-05-02T22:59:01.919Z,4.10
2023-05-02T23:01:28.714Z,4.55
2023-05-02T23:03:55.490Z,4.40
2023-05-02T23:06:22.234Z,4.47
2023-05-02T23:08:51.239Z,4.50
2023-05-02T23:11:17.834Z,4.25
2023-05-02T23:13:44.472Z,4.40
2023-05-02T23:16:11.182Z,3.92
2023-05-02T23:18:37.797Z,4.00
2023-05-02T23:21:04.780Z,3.35
2023-05-02T23:23:33.387Z,4.00
2023-05-02T23:26:00.291Z,3.53
2023-05-02T23:28:26.938Z,3.20
2023-05-02T23:30:53.779Z,2.80
2023-05-02T23:33:20.991Z,3.50
2023-05-02T23:35:48.239Z,3.38
2023-05-02T23:38:15.253Z,4.03
2023-05-02T23:40:41.844Z,3.13
2023-05-02T23:43:08.886Z,3.42
2023-05-02T23:45:35.797Z,3.03
2023-05-02T23:48:02.438Z,3.10
2023-05-02T23:50:29.084Z,3.15
2023-05-02T23:52:55.704Z,2.78
2023-05-02T23:55:22.381Z,3.35
2023-05-02T23:57:49.009Z,3.08
